sensor_id;sensor_type;location;lat;lon;timestamp;P1;durP1;ratioP1;P2;durP2;ratioP2
4595;SDS011;2310;49.978;8.742;2023-04-24T00:02:04;3.30;;;1.43;;
4595;SDS011;2310;49.978;8.742;2023-04-24T00:06:07;4.20;;;1.50;;
4595;SDS011;2310;49.978;8.742;2023-04-24T00:10:11;3.30;;;1.33;;
4595;SDS011;2310;49.978;8.742;2023-04-24T00:14:13;3.17;;;1.57;;
4595;SDS011;2310;49.978;8.742;2023-04-24T00:18:14;3.93;;;1.50;;
4595;SDS011;2310;49.978;8.742;2023-04-24T00:22:15;4.03;;;1.63;;
4595;SDS011;2310;49.978;8.742;2023-04-24T00:26:17;2.93;;;1.20;;
4595;SDS011;2310;49.978;8.742;2023-04-24T00:30:18;3.10;;;1.30;;
4595;SDS011;2310;49.978;8.742;2023-04-24T00:34:19;3.40;;;1.50;;
4595;SDS011;2310;49.978;8.742;2023-04-24T00:38:20;4.00;;;1.33;;
4595;SDS011;2310;49.978;8.742;2023-04-24T00:42:23;3.30;;;1.53;;
4595;SDS011;2310;49.978;8.742;2023-04-24T00:46:24;3.20;;;1.17;;
4595;SDS011;2310;49.978;8.742;2023-04-24T00:50:26;3.17;;;1.30;;
4595;SDS011;2310;49.978;8.742;2023-04-24T00:54:27;3.70;;;1.20;;
4595;SDS011;2310;49.978;8.742;2023-04-24T00:58:28;3.47;;;1.60;;
4595;SDS011;2310;49.978;8.742;2023-04-24T01:02:29;3.87;;;1.57;;
4595;SDS011;2310;49.978;8.742;2023-04-24T01:06:31;3.33;;;1.57;;
4595;SDS011;2310;49.978;8.742;2023-04-24T01:10:33;3.33;;;1.20;;
4595;SDS011;2310;49.978;8.742;2023-04-24T01:14:37;3.43;;;1.40;;
4595;SDS011;2310;49.978;8.742;2023-04-24T01:18:39;2.90;;;1.23;;
4595;SDS011;2310;49.978;8.742;2023-04-24T01:22:40;6.00;;;1.77;;
4595;SDS011;2310;49.978;8.742;2023-04-24T01:26:42;3.70;;;1.37;;
4595;SDS011;2310;49.978;8.742;2023-04-24T01:30:44;5.70;;;1.70;;
4595;SDS011;2310;49.978;8.742;2023-04-24T01:34:45;3.23;;;1.63;;
4595;SDS011;2310;49.978;8.742;2023-04-24T01:38:47;5.70;;;1.53;;
4595;SDS011;2310;49.978;8.742;2023-04-24T01:42:49;3.20;;;1.57;;
4595;SDS011;2310;49.978;8.742;2023-04-24T01:46:50;3.87;;;1.73;;
4595;SDS011;2310;49.978;8.742;2023-04-24T01:50:52;4.40;;;1.70;;
4595;SDS011;2310;49.978;8.742;2023-04-24T01:54:53;3.30;;;1.70;;
4595;SDS011;2310;49.978;8.742;2023-04-24T01:58:56;3.87;;;1.67;;
4595;SDS011;2310;49.978;8.742;2023-04-24T02:02:58;4.43;;;1.83;;
4595;SDS011;2310;49.978;8.742;2023-04-24T02:06:59;5.80;;;1.60;;
4595;SDS011;2310;49.978;8.742;2023-04-24T02:11:00;5.40;;;1.90;;
4595;SDS011;2310;49.978;8.742;2023-04-24T02:15:03;4.60;;;1.33;;
4595;SDS011;2310;49.978;8.742;2023-04-24T02:19:04;7.00;;;1.80;;
4595;SDS011;2310;49.978;8.742;2023-04-24T02:23:06;3.60;;;1.47;;
4595;SDS011;2310;49.978;8.742;2023-04-24T02:27:07;4.40;;;1.80;;
4595;SDS011;2310;49.978;8.742;2023-04-24T02:31:08;3.77;;;1.87;;
4595;SDS011;2310;49.978;8.742;2023-04-24T02:35:09;3.40;;;1.37;;
4595;SDS011;2310;49.978;8.742;2023-04-24T02:39:10;4.63;;;1.83;;
4595;SDS011;2310;49.978;8.742;2023-04-24T02:43:12;3.13;;;1.73;;
4595;SDS011;2310;49.978;8.742;2023-04-24T02:47:13;4.20;;;1.70;;
4595;SDS011;2310;49.978;8.742;2023-04-24T02:51:14;5.30;;;1.77;;
4595;SDS011;2310;49.978;8.742;2023-04-24T02:55:15;3.90;;;1.63;;
4595;SDS011;2310;49.978;8.742;2023-04-24T02:59:17;4.73;;;1.83;;
4595;SDS011;2310;49.978;8.742;2023-04-24T03:03:18;4.50;;;1.80;;
4595;SDS011;2310;49.978;8.742;2023-04-24T03:07:19;3.90;;;2.07;;
4595;SDS011;2310;49.978;8.742;2023-04-24T03:11:21;3.77;;;2.20;;
4595;SDS011;2310;49.978;8.742;2023-04-24T03:15:22;3.50;;;1.50;;
4595;SDS011;2310;49.978;8.742;2023-04-24T03:19:23;4.13;;;2.30;;
4595;SDS011;2310;49.978;8.742;2023-04-24T03:23:25;5.17;;;2.20;;
4595;SDS011;2310;49.978;8.742;2023-04-24T03:27:26;5.80;;;2.80;;
4595;SDS011;2310;49.978;8.742;2023-04-24T03:31:27;5.37;;;2.30;;
4595;SDS011;2310;49.978;8.742;2023-04-24T03:35:29;7.93;;;2.40;;
4595;SDS011;2310;49.978;8.742;2023-04-24T03:39:30;4.33;;;1.73;;
4595;SDS011;2310;49.978;8.742;2023-04-24T03:43:31;8.83;;;2.87;;
4595;SDS011;2310;49.978;8.742;2023-04-24T03:47:35;4.00;;;2.30;;
4595;SDS011;2310;49.978;8.742;2023-04-24T03:51:36;4.07;;;2.40;;
4595;SDS011;2310;49.978;8.742;2023-04-24T03:55:37;4.70;;;2.10;;
4595;SDS011;2310;49.978;8.742;2023-04-24T03:59:38;4.13;;;2.57;;
4595;SDS011;2310;49.978;8.742;2023-04-24T04:03:39;4.93;;;2.23;;
4595;SDS011;2310;49.978;8.742;2023-04-24T04:07:41;3.60;;;2.00;;
4595;SDS011;2310;49.978;8.742;2023-04-24T04:11:42;3.67;;;2.30;;
4595;SDS011;2310;49.978;8.742;2023-04-24T04:15:44;4.80;;;1.80;;
4595;SDS011;2310;49.978;8.742;2023-04-24T04:19:45;4.07;;;2.03;;
4595;SDS011;2310;49.978;8.742;2023-04-24T04:23:46;3.70;;;2.33;;
4595;SDS011;2310;49.978;8.742;2023-04-24T04:27:47;4.17;;;2.40;;
4595;SDS011;2310;49.978;8.742;2023-04-24T04:31:49;3.77;;;2.70;;
4595;SDS011;2310;49.978;8.742;2023-04-24T04:35:50;5.37;;;2.20;;
4595;SDS011;2310;49.978;8.742;2023-04-24T04:39:52;4.20;;;2.60;;
4595;SDS011;2310;49.978;8.742;2023-04-24T04:43:55;3.77;;;2.80;;
4595;SDS011;2310;49.978;8.742;2023-04-24T04:47:58;4.20;;;2.80;;
4595;SDS011;2310;49.978;8.742;2023-04-24T04:52:02;5.50;;;2.90;;
4595;SDS011;2310;49.978;8.742;2023-04-24T04:56:03;4.87;;;2.60;;
4595;SDS011;2310;49.978;8.742;2023-04-24T05:00:05;4.73;;;2.77;;
4595;SDS011;2310;49.978;8.742;2023-04-24T05:04:08;7.57;;;3.10;;
4595;SDS011;2310;49.978;8.742;2023-04-24T05:08:10;4.20;;;2.70;;
4595;SDS011;2310;49.978;8.742;2023-04-24T05:12:12;4.00;;;2.80;;
4595;SDS011;2310;49.978;8.742;2023-04-24T05:16:14;4.20;;;2.90;;
4595;SDS011;2310;49.978;8.742;2023-04-24T05:20:15;3.37;;;2.23;;
4595;SDS011;2310;49.978;8.742;2023-04-24T05:24:16;3.90;;;2.40;;
4595;SDS011;2310;49.978;8.742;2023-04-24T05:28:17;4.50;;;3.13;;
4595;SDS011;2310;49.978;8.742;2023-04-24T05:32:18;4.00;;;3.03;;
4595;SDS011;2310;49.978;8.742;2023-04-24T05:36:19;4.20;;;2.73;;
4595;SDS011;2310;49.978;8.742;2023-04-24T05:40:21;4.90;;;3.20;;
4595;SDS011;2310;49.978;8.742;2023-04-24T05:44:22;4.17;;;2.77;;
4595;SDS011;2310;49.978;8.742;2023-04-24T05:48:23;4.63;;;3.03;;
4595;SDS011;2310;49.978;8.742;2023-04-24T05:52:24;4.03;;;3.03;;
4595;SDS011;2310;49.978;8.742;2023-04-24T05:56:25;4.00;;;3.00;;
4595;SDS011;2310;49.978;8.742;2023-04-24T06:00:27;4.97;;;3.70;;
4595;SDS011;2310;49.978;8.742;2023-04-24T06:04:29;3.80;;;3.10;;
4595;SDS011;2310;49.978;8.742;2023-04-24T06:08:32;4.70;;;3.07;;
4595;SDS011;2310;49.978;8.742;2023-04-24T06:12:33;3.97;;;2.77;;
4595;SDS011;2310;49.978;8.742;2023-04-24T06:16:34;5.87;;;3.60;;
4595;SDS011;2310;49.978;8.742;2023-04-24T06:20:35;5.50;;;3.00;;
4595;SDS011;2310;49.978;8.742;2023-04-24T06:24:37;4.23;;;3.30;;
4595;SDS011;2310;49.978;8.742;2023-04-24T06:28:38;4.63;;;3.10;;
4595;SDS011;2310;49.978;8.742;2023-04-24T06:32:39;4.30;;;3.23;;
4595;SDS011;2310;49.978;8.742;2023-04-24T06:36:40;6.10;;;4.13;;
4595;SDS011;2310;49.978;8.742;2023-04-24T06:40:42;7.23;;;3.57;;
4595;SDS011;2310;49.978;8.742;2023-04-24T06:44:46;6.60;;;4.20;;
4595;SDS011;2310;49.978;8.742;2023-04-24T06:48:47;5.90;;;4.63;;
4595;SDS011;2310;49.978;8.742;2023-04-24T06:52:48;6.63;;;4.60;;
4595;SDS011;2310;49.978;8.742;2023-04-24T06:56:49;5.87;;;4.90;;
4595;SDS011;2310;49.978;8.742;2023-04-24T07:00:52;6.27;;;4.60;;
4595;SDS011;2310;49.978;8.742;2023-04-24T07:04:53;5.47;;;4.97;;
4595;SDS011;2310;49.978;8.742;2023-04-24T07:08:54;5.37;;;4.70;;
4595;SDS011;2310;49.978;8.742;2023-04-24T07:12:56;7.90;;;4.60;;
4595;SDS011;2310;49.978;8.742;2023-04-24T07:16:57;5.60;;;4.93;;
4595;SDS011;2310;49.978;8.742;2023-04-24T07:20:59;6.40;;;5.37;;
4595;SDS011;2310;49.978;8.742;2023-04-24T07:25:00;6.00;;;5.20;;
4595;SDS011;2310;49.978;8.742;2023-04-24T07:29:02;6.00;;;4.80;;
4595;SDS011;2310;49.978;8.742;2023-04-24T07:33:03;7.10;;;5.60;;
4595;SDS011;2310;49.978;8.742;2023-04-24T07:37:04;5.60;;;5.00;;
4595;SDS011;2310;49.978;8.742;2023-04-24T07:41:06;7.77;;;5.40;;
4595;SDS011;2310;49.978;8.742;2023-04-24T07:45:07;10.07;;;5.90;;
4595;SDS011;2310;49.978;8.742;2023-04-24T07:49:08;7.30;;;6.00;;
4595;SDS011;2310;49.978;8.742;2023-04-24T07:53:11;6.80;;;4.67;;
4595;SDS011;2310;49.978;8.742;2023-04-24T07:57:13;4.00;;;3.23;;
4595;SDS011;2310;49.978;8.742;2023-04-24T08:01:14;5.30;;;3.87;;
4595;SDS011;2310;49.978;8.742;2023-04-24T08:05:16;4.20;;;3.13;;
4595;SDS011;2310;49.978;8.742;2023-04-24T08:09:18;5.07;;;3.57;;
4595;SDS011;2310;49.978;8.742;2023-04-24T08:13:19;4.70;;;3.33;;
4595;SDS011;2310;49.978;8.742;2023-04-24T08:17:21;5.10;;;3.13;;
4595;SDS011;2310;49.978;8.742;2023-04-24T08:21:22;4.60;;;3.07;;
4595;SDS011;2310;49.978;8.742;2023-04-24T08:25:24;4.33;;;3.13;;
4595;SDS011;2310;49.978;8.742;2023-04-24T08:29:25;5.07;;;3.10;;
4595;SDS011;2310;49.978;8.742;2023-04-24T08:33:27;3.30;;;2.50;;
4595;SDS011;2310;49.978;8.742;2023-04-24T08:37:30;4.17;;;2.77;;
4595;SDS011;2310;49.978;8.742;2023-04-24T08:41:32;4.50;;;2.93;;
4595;SDS011;2310;49.978;8.742;2023-04-24T08:45:35;5.33;;;3.93;;
4595;SDS011;2310;49.978;8.742;2023-04-24T08:49:38;4.77;;;3.50;;
4595;SDS011;2310;49.978;8.742;2023-04-24T08:53:40;5.60;;;3.30;;
4595;SDS011;2310;49.978;8.742;2023-04-24T08:57:41;5.20;;;3.23;;
4595;SDS011;2310;49.978;8.742;2023-04-24T09:01:42;3.77;;;2.57;;
4595;SDS011;2310;49.978;8.742;2023-04-24T09:05:46;4.03;;;2.80;;
4595;SDS011;2310;49.978;8.742;2023-04-24T09:09:49;4.80;;;3.40;;
4595;SDS011;2310;49.978;8.742;2023-04-24T09:13:51;5.90;;;3.60;;
4595;SDS011;2310;49.978;8.742;2023-04-24T09:17:54;4.60;;;3.23;;
4595;SDS011;2310;49.978;8.742;2023-04-24T09:21:56;4.83;;;3.30;;
4595;SDS011;2310;49.978;8.742;2023-04-24T09:25:58;4.80;;;2.90;;
4595;SDS011;2310;49.978;8.742;2023-04-24T09:30:01;5.30;;;3.20;;
4595;SDS011;2310;49.978;8.742;2023-04-24T09:34:04;5.67;;;2.60;;
4595;SDS011;2310;49.978;8.742;2023-04-24T09:38:09;4.83;;;2.80;;
4595;SDS011;2310;49.978;8.742;2023-04-24T09:42:11;3.50;;;2.50;;
4595;SDS011;2310;49.978;8.742;2023-04-24T09:46:12;5.43;;;2.87;;
4595;SDS011;2310;49.978;8.742;2023-04-24T09:50:15;4.13;;;3.10;;
4595;SDS011;2310;49.978;8.742;2023-04-24T09:54:19;4.37;;;2.67;;
4595;SDS011;2310;49.978;8.742;2023-04-24T09:58:25;3.90;;;2.37;;
4595;SDS011;2310;49.978;8.742;2023-04-24T10:02:27;3.40;;;2.40;;
4595;SDS011;2310;49.978;8.742;2023-04-24T10:06:35;3.40;;;2.13;;
4595;SDS011;2310;49.978;8.742;2023-04-24T10:10:41;6.17;;;2.00;;
4595;SDS011;2310;49.978;8.742;2023-04-24T10:14:44;4.37;;;2.10;;
4595;SDS011;2310;49.978;8.742;2023-04-24T10:18:48;4.23;;;2.33;;
4595;SDS011;2310;49.978;8.742;2023-04-24T10:22:51;4.30;;;3.00;;
4595;SDS011;2310;49.978;8.742;2023-04-24T10:26:54;4.43;;;2.60;;
4595;SDS011;2310;49.978;8.742;2023-04-24T10:30:57;3.50;;;2.30;;
4595;SDS011;2310;49.978;8.742;2023-04-24T10:34:59;5.77;;;2.80;;
4595;SDS011;2310;49.978;8.742;2023-04-24T10:39:02;7.30;;;2.70;;
4595;SDS011;2310;49.978;8.742;2023-04-24T10:43:06;4.07;;;2.70;;
4595;SDS011;2310;49.978;8.742;2023-04-24T10:47:12;4.50;;;2.83;;
4595;SDS011;2310;49.978;8.742;2023-04-24T10:51:15;5.10;;;3.30;;
4595;SDS011;2310;49.978;8.742;2023-04-24T10:55:16;4.20;;;3.10;;
4595;SDS011;2310;49.978;8.742;2023-04-24T10:59:26;3.63;;;2.67;;
4595;SDS011;2310;49.978;8.742;2023-04-24T11:03:31;5.70;;;3.50;;
4595;SDS011;2310;49.978;8.742;2023-04-24T11:12:12;5.43;;;3.10;;
4595;SDS011;2310;49.978;8.742;2023-04-24T11:16:20;4.17;;;2.90;;
4595;SDS011;2310;49.978;8.742;2023-04-24T11:20:23;7.87;;;5.67;;
4595;SDS011;2310;49.978;8.742;2023-04-24T11:24:32;5.33;;;3.70;;
4595;SDS011;2310;49.978;8.742;2023-04-24T11:28:44;4.20;;;3.30;;
4595;SDS011;2310;49.978;8.742;2023-04-24T11:32:43;4.00;;;2.20;;
4595;SDS011;2310;49.978;8.742;2023-04-24T11:36:48;5.00;;;2.50;;
4595;SDS011;2310;49.978;8.742;2023-04-24T11:40:50;4.77;;;3.10;;
4595;SDS011;2310;49.978;8.742;2023-04-24T11:44:53;3.70;;;2.60;;
4595;SDS011;2310;49.978;8.742;2023-04-24T11:48:56;3.97;;;2.63;;
4595;SDS011;2310;49.978;8.742;2023-04-24T11:52:57;4.23;;;2.60;;
4595;SDS011;2310;49.978;8.742;2023-04-24T11:57:03;3.40;;;2.13;;
4595;SDS011;2310;49.978;8.742;2023-04-24T12:01:07;4.70;;;2.10;;
4595;SDS011;2310;49.978;8.742;2023-04-24T12:05:08;3.37;;;2.43;;
4595;SDS011;2310;49.978;8.742;2023-04-24T12:09:10;2.83;;;1.60;;
4595;SDS011;2310;49.978;8.742;2023-04-24T12:13:14;2.80;;;1.70;;
4595;SDS011;2310;49.978;8.742;2023-04-24T12:17:16;2.90;;;1.83;;
4595;SDS011;2310;49.978;8.742;2023-04-24T12:21:18;3.43;;;2.10;;
4595;SDS011;2310;49.978;8.742;2023-04-24T12:25:24;3.40;;;1.70;;
4595;SDS011;2310;49.978;8.742;2023-04-24T12:29:27;2.90;;;1.80;;
4595;SDS011;2310;49.978;8.742;2023-04-24T12:33:31;3.53;;;2.17;;
4595;SDS011;2310;49.978;8.742;2023-04-24T12:37:36;4.53;;;2.50;;
4595;SDS011;2310;49.978;8.742;2023-04-24T12:41:37;3.33;;;2.20;;
4595;SDS011;2310;49.978;8.742;2023-04-24T12:45:38;5.17;;;2.57;;
4595;SDS011;2310;49.978;8.742;2023-04-24T12:49:39;4.40;;;3.13;;
4595;SDS011;2310;49.978;8.742;2023-04-24T12:53:42;4.93;;;3.00;;
4595;SDS011;2310;49.978;8.742;2023-04-24T12:57:44;7.20;;;4.37;;
4595;SDS011;2310;49.978;8.742;2023-04-24T13:01:45;6.33;;;3.93;;
4595;SDS011;2310;49.978;8.742;2023-04-24T13:05:47;5.70;;;3.30;;
4595;SDS011;2310;49.978;8.742;2023-04-24T13:09:48;6.37;;;3.60;;
4595;SDS011;2310;49.978;8.742;2023-04-24T13:13:51;5.00;;;3.80;;
4595;SDS011;2310;49.978;8.742;2023-04-24T13:17:54;5.47;;;3.60;;
4595;SDS011;2310;49.978;8.742;2023-04-24T13:21:55;4.60;;;3.33;;
4595;SDS011;2310;49.978;8.742;2023-04-24T13:25:58;8.17;;;4.00;;
4595;SDS011;2310;49.978;8.742;2023-04-24T13:29:59;4.93;;;3.33;;
4595;SDS011;2310;49.978;8.742;2023-04-24T13:34:00;5.43;;;3.90;;
4595;SDS011;2310;49.978;8.742;2023-04-24T13:38:02;5.00;;;3.93;;
4595;SDS011;2310;49.978;8.742;2023-04-24T13:42:06;5.27;;;3.73;;
4595;SDS011;2310;49.978;8.742;2023-04-24T13:46:07;8.10;;;4.20;;
4595;SDS011;2310;49.978;8.742;2023-04-24T13:50:08;5.50;;;3.70;;
4595;SDS011;2310;49.978;8.742;2023-04-24T13:54:10;9.97;;;4.17;;
4595;SDS011;2310;49.978;8.742;2023-04-24T13:58:12;7.33;;;3.97;;
4595;SDS011;2310;49.978;8.742;2023-04-24T14:02:13;6.93;;;4.77;;
4595;SDS011;2310;49.978;8.742;2023-04-24T14:06:14;9.80;;;5.33;;
4595;SDS011;2310;49.978;8.742;2023-04-24T14:10:15;5.47;;;3.70;;
4595;SDS011;2310;49.978;8.742;2023-04-24T14:14:16;4.40;;;3.27;;
4595;SDS011;2310;49.978;8.742;2023-04-24T14:18:18;4.67;;;3.57;;
4595;SDS011;2310;49.978;8.742;2023-04-24T14:22:19;7.03;;;4.83;;
4595;SDS011;2310;49.978;8.742;2023-04-24T14:26:21;6.83;;;4.10;;
4595;SDS011;2310;49.978;8.742;2023-04-24T14:30:22;6.33;;;5.13;;
4595;SDS011;2310;49.978;8.742;2023-04-24T14:34:23;8.17;;;4.33;;
4595;SDS011;2310;49.978;8.742;2023-04-24T14:38:25;6.73;;;4.40;;
4595;SDS011;2310;49.978;8.742;2023-04-24T14:42:26;9.30;;;4.90;;
4595;SDS011;2310;49.978;8.742;2023-04-24T14:46:29;5.30;;;4.53;;
4595;SDS011;2310;49.978;8.742;2023-04-24T14:50:31;8.23;;;5.40;;
4595;SDS011;2310;49.978;8.742;2023-04-24T14:54:32;5.43;;;3.90;;
4595;SDS011;2310;49.978;8.742;2023-04-24T14:58:34;5.67;;;4.30;;
4595;SDS011;2310;49.978;8.742;2023-04-24T15:02:36;5.63;;;4.63;;
4595;SDS011;2310;49.978;8.742;2023-04-24T15:06:39;4.50;;;3.73;;
4595;SDS011;2310;49.978;8.742;2023-04-24T15:10:41;5.43;;;4.23;;
4595;SDS011;2310;49.978;8.742;2023-04-24T15:14:43;7.33;;;4.00;;
4595;SDS011;2310;49.978;8.742;2023-04-24T15:18:44;7.93;;;4.30;;
4595;SDS011;2310;49.978;8.742;2023-04-24T15:22:45;5.70;;;4.07;;
4595;SDS011;2310;49.978;8.742;2023-04-24T15:26:46;7.37;;;4.43;;
4595;SDS011;2310;49.978;8.742;2023-04-24T15:30:48;5.47;;;4.27;;
4595;SDS011;2310;49.978;8.742;2023-04-24T15:34:49;5.70;;;3.53;;
4595;SDS011;2310;49.978;8.742;2023-04-24T15:38:52;5.47;;;3.73;;
4595;SDS011;2310;49.978;8.742;2023-04-24T15:42:53;6.53;;;3.90;;
4595;SDS011;2310;49.978;8.742;2023-04-24T15:46:54;4.97;;;3.80;;
4595;SDS011;2310;49.978;8.742;2023-04-24T15:50:56;5.73;;;3.93;;
4595;SDS011;2310;49.978;8.742;2023-04-24T15:54:57;6.30;;;4.20;;
4595;SDS011;2310;49.978;8.742;2023-04-24T15:58:58;6.40;;;4.43;;
4595;SDS011;2310;49.978;8.742;2023-04-24T16:03:00;6.00;;;4.57;;
4595;SDS011;2310;49.978;8.742;2023-04-24T16:07:02;7.03;;;3.80;;
4595;SDS011;2310;49.978;8.742;2023-04-24T16:11:03;8.57;;;4.60;;
4595;SDS011;2310;49.978;8.742;2023-04-24T16:15:04;6.40;;;3.97;;
4595;SDS011;2310;49.978;8.742;2023-04-24T16:19:06;5.40;;;4.70;;
4595;SDS011;2310;49.978;8.742;2023-04-24T16:23:08;7.00;;;4.47;;
4595;SDS011;2310;49.978;8.742;2023-04-24T16:27:09;6.57;;;4.73;;
4595;SDS011;2310;49.978;8.742;2023-04-24T16:31:11;6.53;;;4.00;;
4595;SDS011;2310;49.978;8.742;2023-04-24T16:35:12;6.97;;;4.50;;
4595;SDS011;2310;49.978;8.742;2023-04-24T16:39:13;6.03;;;4.03;;
4595;SDS011;2310;49.978;8.742;2023-04-24T16:43:14;6.30;;;5.00;;
4595;SDS011;2310;49.978;8.742;2023-04-24T16:47:16;5.53;;;4.43;;
4595;SDS011;2310;49.978;8.742;2023-04-24T16:51:17;7.73;;;5.00;;
4595;SDS011;2310;49.978;8.742;2023-04-24T16:55:18;7.90;;;5.40;;
4595;SDS011;2310;49.978;8.742;2023-04-24T16:59:20;5.43;;;4.20;;
4595;SDS011;2310;49.978;8.742;2023-04-24T17:03:21;5.10;;;4.53;;
4595;SDS011;2310;49.978;8.742;2023-04-24T17:07:23;7.90;;;5.57;;
4595;SDS011;2310;49.978;8.742;2023-04-24T17:11:24;6.40;;;5.20;;
4595;SDS011;2310;49.978;8.742;2023-04-24T17:15:25;7.80;;;5.17;;
4595;SDS011;2310;49.978;8.742;2023-04-24T17:19:27;7.60;;;4.70;;
4595;SDS011;2310;49.978;8.742;2023-04-24T17:23:28;5.90;;;4.30;;
4595;SDS011;2310;49.978;8.742;2023-04-24T17:27:29;4.80;;;4.20;;
4595;SDS011;2310;49.978;8.742;2023-04-24T17:31:31;4.80;;;4.30;;
4595;SDS011;2310;49.978;8.742;2023-04-24T17:35:32;5.27;;;4.13;;
4595;SDS011;2310;49.978;8.742;2023-04-24T17:39:33;6.00;;;4.50;;
4595;SDS011;2310;49.978;8.742;2023-04-24T17:43:34;5.97;;;4.30;;
4595;SDS011;2310;49.978;8.742;2023-04-24T17:47:35;6.63;;;5.60;;
4595;SDS011;2310;49.978;8.742;2023-04-24T17:51:37;6.90;;;6.20;;
4595;SDS011;2310;49.978;8.742;2023-04-24T17:55:38;7.40;;;6.13;;
4595;SDS011;2310;49.978;8.742;2023-04-24T17:59:40;7.33;;;6.00;;
4595;SDS011;2310;49.978;8.742;2023-04-24T18:03:41;6.97;;;5.47;;
4595;SDS011;2310;49.978;8.742;2023-04-24T18:07:44;5.57;;;4.40;;
4595;SDS011;2310;49.978;8.742;2023-04-24T18:11:54;5.70;;;4.87;;
4595;SDS011;2310;49.978;8.742;2023-04-24T18:15:53;6.67;;;5.97;;
4595;SDS011;2310;49.978;8.742;2023-04-24T18:19:55;8.80;;;6.17;;
4595;SDS011;2310;49.978;8.742;2023-04-24T18:23:56;7.30;;;6.00;;
4595;SDS011;2310;49.978;8.742;2023-04-24T18:27:59;6.70;;;5.97;;
4595;SDS011;2310;49.978;8.742;2023-04-24T18:32:00;7.80;;;6.23;;
4595;SDS011;2310;49.978;8.742;2023-04-24T18:36:01;6.20;;;5.60;;
4595;SDS011;2310;49.978;8.742;2023-04-24T18:40:04;7.10;;;5.73;;
4595;SDS011;2310;49.978;8.742;2023-04-24T18:44:06;8.40;;;6.47;;
4595;SDS011;2310;49.978;8.742;2023-04-24T18:48:08;12.03;;;5.95;;
4595;SDS011;2310;49.978;8.742;2023-04-24T18:52:10;10.70;;;6.40;;
4595;SDS011;2310;49.978;8.742;2023-04-24T18:56:11;7.10;;;5.73;;
4595;SDS011;2310;49.978;8.742;2023-04-24T19:00:13;7.00;;;5.50;;
4595;SDS011;2310;49.978;8.742;2023-04-24T19:04:14;6.30;;;5.63;;
4595;SDS011;2310;49.978;8.742;2023-04-24T19:08:15;7.20;;;4.97;;
4595;SDS011;2310;49.978;8.742;2023-04-24T19:12:17;6.60;;;5.40;;
4595;SDS011;2310;49.978;8.742;2023-04-24T19:16:20;7.63;;;4.50;;
4595;SDS011;2310;49.978;8.742;2023-04-24T19:20:21;5.40;;;4.67;;
4595;SDS011;2310;49.978;8.742;2023-04-24T19:24:23;5.57;;;4.50;;
4595;SDS011;2310;49.978;8.742;2023-04-24T19:28:25;5.50;;;4.20;;
4595;SDS011;2310;49.978;8.742;2023-04-24T19:32:26;5.73;;;4.40;;
4595;SDS011;2310;49.978;8.742;2023-04-24T19:36:28;4.57;;;4.03;;
4595;SDS011;2310;49.978;8.742;2023-04-24T19:40:31;5.57;;;4.50;;
4595;SDS011;2310;49.978;8.742;2023-04-24T19:44:32;5.53;;;4.33;;
4595;SDS011;2310;49.978;8.742;2023-04-24T19:48:33;5.87;;;4.97;;
4595;SDS011;2310;49.978;8.742;2023-04-24T19:52:35;5.90;;;4.03;;
4595;SDS011;2310;49.978;8.742;2023-04-24T19:56:36;5.50;;;4.60;;
4595;SDS011;2310;49.978;8.742;2023-04-24T20:00:38;8.30;;;7.50;;
4595;SDS011;2310;49.978;8.742;2023-04-24T20:04:41;8.10;;;6.03;;
4595;SDS011;2310;49.978;8.742;2023-04-24T20:08:42;6.27;;;5.20;;
4595;SDS011;2310;49.978;8.742;2023-04-24T20:12:44;7.83;;;6.40;;
4595;SDS011;2310;49.978;8.742;2023-04-24T20:16:45;10.50;;;6.60;;
4595;SDS011;2310;49.978;8.742;2023-04-24T20:20:47;11.07;;;7.67;;
4595;SDS011;2310;49.978;8.742;2023-04-24T20:24:48;8.90;;;6.70;;
4595;SDS011;2310;49.978;8.742;2023-04-24T20:28:50;7.23;;;5.40;;
4595;SDS011;2310;49.978;8.742;2023-04-24T20:32:51;8.00;;;5.43;;
4595;SDS011;2310;49.978;8.742;2023-04-24T20:36:53;7.57;;;5.13;;
4595;SDS011;2310;49.978;8.742;2023-04-24T20:40:56;6.10;;;4.63;;
4595;SDS011;2310;49.978;8.742;2023-04-24T20:44:59;7.53;;;5.37;;
4595;SDS011;2310;49.978;8.742;2023-04-24T20:49:03;6.97;;;4.40;;
4595;SDS011;2310;49.978;8.742;2023-04-24T20:53:11;8.13;;;6.33;;
4595;SDS011;2310;49.978;8.742;2023-04-24T20:57:12;9.97;;;5.30;;
4595;SDS011;2310;49.978;8.742;2023-04-24T21:01:13;7.30;;;6.53;;
4595;SDS011;2310;49.978;8.742;2023-04-24T21:05:16;7.50;;;5.73;;
4595;SDS011;2310;49.978;8.742;2023-04-24T21:09:17;6.90;;;5.30;;
4595;SDS011;2310;49.978;8.742;2023-04-24T21:13:18;6.10;;;4.90;;
4595;SDS011;2310;49.978;8.742;2023-04-24T21:17:19;7.03;;;5.53;;
4595;SDS011;2310;49.978;8.742;2023-04-24T21:21:21;8.37;;;6.50;;
4595;SDS011;2310;49.978;8.742;2023-04-24T21:25:22;6.30;;;5.10;;
4595;SDS011;2310;49.978;8.742;2023-04-24T21:29:23;6.43;;;5.63;;
4595;SDS011;2310;49.978;8.742;2023-04-24T21:33:25;9.47;;;5.67;;
4595;SDS011;2310;49.978;8.742;2023-04-24T21:37:26;7.57;;;5.63;;
4595;SDS011;2310;49.978;8.742;2023-04-24T21:41:27;6.80;;;5.93;;
4595;SDS011;2310;49.978;8.742;2023-04-24T21:45:29;6.80;;;6.10;;
4595;SDS011;2310;49.978;8.742;2023-04-24T21:49:34;9.17;;;6.80;;
4595;SDS011;2310;49.978;8.742;2023-04-24T21:53:33;7.50;;;6.07;;
4595;SDS011;2310;49.978;8.742;2023-04-24T21:57:34;7.40;;;6.40;;
4595;SDS011;2310;49.978;8.742;2023-04-24T22:01:35;6.70;;;6.00;;
4595;SDS011;2310;49.978;8.742;2023-04-24T22:05:37;8.07;;;6.43;;
4595;SDS011;2310;49.978;8.742;2023-04-24T22:09:38;9.13;;;6.40;;
4595;SDS011;2310;49.978;8.742;2023-04-24T22:13:39;9.93;;;6.70;;
4595;SDS011;2310;49.978;8.742;2023-04-24T22:17:40;9.13;;;7.00;;
4595;SDS011;2310;49.978;8.742;2023-04-24T22:21:41;9.80;;;6.67;;
4595;SDS011;2310;49.978;8.742;2023-04-24T22:25:43;8.50;;;7.17;;
4595;SDS011;2310;49.978;8.742;2023-04-24T22:29:44;7.63;;;6.83;;
4595;SDS011;2310;49.978;8.742;2023-04-24T22:33:45;8.00;;;7.03;;
4595;SDS011;2310;49.978;8.742;2023-04-24T22:37:50;8.67;;;7.10;;
4595;SDS011;2310;49.978;8.742;2023-04-24T22:41:56;10.93;;;7.17;;
4595;SDS011;2310;49.978;8.742;2023-04-24T22:45:57;9.43;;;7.20;;
4595;SDS011;2310;49.978;8.742;2023-04-24T22:49:58;13.27;;;11.20;;
4595;SDS011;2310;49.978;8.742;2023-04-24T22:54:02;10.40;;;7.83;;
4595;SDS011;2310;49.978;8.742;2023-04-24T22:58:04;8.87;;;7.83;;
4595;SDS011;2310;49.978;8.742;2023-04-24T23:02:06;8.70;;;7.77;;
4595;SDS011;2310;49.978;8.742;2023-04-24T23:06:07;9.10;;;8.10;;
4595;SDS011;2310;49.978;8.742;2023-04-24T23:10:09;8.70;;;7.50;;
4595;SDS011;2310;49.978;8.742;2023-04-24T23:14:10;9.93;;;7.30;;
4595;SDS011;2310;49.978;8.742;2023-04-24T23:18:11;8.10;;;6.90;;
4595;SDS011;2310;49.978;8.742;2023-04-24T23:22:13;10.57;;;6.90;;
4595;SDS011;2310;49.978;8.742;2023-04-24T23:26:14;8.17;;;7.30;;
4595;SDS011;2310;49.978;8.742;2023-04-24T23:30:15;8.83;;;7.50;;
4595;SDS011;2310;49.978;8.742;2023-04-24T23:34:17;10.60;;;7.27;;
4595;SDS011;2310;49.978;8.742;2023-04-24T23:38:19;9.83;;;7.80;;
4595;SDS011;2310;49.978;8.742;2023-04-24T23:42:21;8.27;;;6.23;;
4595;SDS011;2310;49.978;8.742;2023-04-24T23:46:22;6.90;;;5.60;;
4595;SDS011;2310;49.978;8.742;2023-04-24T23:50:23;7.67;;;6.30;;
4595;SDS011;2310;49.978;8.742;2023-04-24T23:54:25;7.00;;;6.17;;
4595;SDS011;2310;49.978;8.742;2023-04-24T23:58:26;6.43;;;5.43;;
